Time;durP1;ratioP1;P1;durP2;ratioP2;P2;SDS_P1;SDS_P2;PMS_P1;PMS_P2;Temp;Humidity;BMP_temperature;BMP_pressure;BME280_temperature;BME280_humidity;BME280_pressure;Samples;Min_cycle;Max_cycle;Signal;HPM_P1;HPM_P2
2021/03/06 00:00:19;;;;;;;4.72;4.32;;;1.10;99.90;;;;;;5042704;28;20203;-79
2021/03/06 00:02:45;;;;;;;6.32;4.80;;;1.00;99.90;;;;;;5041207;28;20577;-79
2021/03/06 00:05:12;;;;;;;8.25;5.90;;;1.10;99.90;;;;;;5042428;28;20258;-80
2021/03/06 00:07:40;;;;;;;7.95;5.10;;;1.10;99.90;;;;;;5044654;28;20203;-80
2021/03/06 00:10:10;;;;;;;9.38;5.03;;;1.00;99.90;;;;;;5042405;28;20196;-79
2021/03/06 00:12:40;;;;;;;5.47;4.82;;;1.00;99.90;;;;;;5042163;28;20293;-80
2021/03/06 00:15:08;;;;;;;7.00;4.22;;;1.00;99.90;;;;;;5044515;28;20739;-79
2021/03/06 00:17:35;;;;;;;8.43;4.75;;;1.00;99.90;;;;;;5053761;28;20203;-78
2021/03/06 00:20:01;;;;;;;4.93;4.07;;;1.00;99.90;;;;;;5055112;28;20234;-81
2021/03/06 00:22:27;;;;;;;6.32;4.57;;;0.90;99.90;;;;;;5052907;28;20206;-80
2021/03/06 00:24:53;;;;;;;5.68;5.07;;;0.90;99.90;;;;;;5050174;28;20236;-79
2021/03/06 00:27:19;;;;;;;9.57;4.82;;;1.10;99.90;;;;;;5054824;28;20203;-78
2021/03/06 00:29:46;;;;;;;5.40;4.80;;;0.80;99.90;;;;;;5053961;28;20211;-79
2021/03/06 00:32:12;;;;;;;10.18;6.05;;;0.80;99.90;;;;;;5055279;28;20203;-78
2021/03/06 00:34:38;;;;;;;8.35;5.88;;;0.70;99.90;;;;;;5051356;28;20216;-78
2021/03/06 00:37:04;;;;;;;6.28;5.20;;;0.70;99.90;;;;;;5053594;28;20204;-79
2021/03/06 00:39:31;;;;;;;9.80;5.82;;;0.60;99.90;;;;;;5053141;28;20214;-78
2021/03/06 00:41:57;;;;;;;5.13;4.60;;;0.60;99.90;;;;;;5052339;28;20188;-78
2021/03/06 00:44:23;;;;;;;7.22;4.95;;;0.60;99.90;;;;;;5052368;28;20295;-77
2021/03/06 00:46:50;;;;;;;5.80;4.72;;;0.60;99.90;;;;;;5051990;28;20204;-79
2021/03/06 00:49:18;;;;;;;6.22;4.65;;;0.50;99.90;;;;;;5053253;28;20279;-80
2021/03/06 00:51:44;;;;;;;9.43;4.70;;;0.50;99.90;;;;;;5055421;28;20204;-78
2021/03/06 00:54:10;;;;;;;5.80;5.22;;;0.50;99.90;;;;;;5053975;28;20741;-78
2021/03/06 00:56:37;;;;;;;6.85;4.78;;;0.50;99.90;;;;;;5051748;28;20203;-78
2021/03/06 00:59:03;;;;;;;5.65;5.05;;;0.50;99.90;;;;;;5056361;28;20666;-78
2021/03/06 01:01:29;;;;;;;6.07;4.80;;;0.50;99.90;;;;;;5053395;28;20694;-78
2021/03/06 01:03:56;;;;;;;6.82;5.45;;;0.50;99.90;;;;;;5053031;28;20597;-77
2021/03/06 01:06:22;;;;;;;6.93;5.35;;;0.50;99.90;;;;;;5054793;28;20187;-78
2021/03/06 01:08:48;;;;;;;6.85;4.72;;;0.40;99.90;;;;;;5053179;28;20206;-78
2021/03/06 01:11:15;;;;;;;4.68;4.22;;;0.40;99.90;;;;;;5053781;28;20206;-78
2021/03/06 01:13:41;;;;;;;8.57;4.97;;;0.30;99.90;;;;;;5054736;28;20273;-79
2021/03/06 01:16:07;;;;;;;6.93;4.80;;;0.30;99.90;;;;;;5055386;28;20203;-77
2021/03/06 01:18:33;;;;;;;7.10;5.43;;;0.30;99.90;;;;;;5054318;28;20207;-79
2021/03/06 01:21:00;;;;;;;6.57;5.05;;;0.40;99.90;;;;;;5054580;28;20208;-78
2021/03/06 01:23:29;;;;;;;10.52;4.53;;;0.30;99.90;;;;;;5055250;28;20254;-79
2021/03/06 01:25:55;;;;;;;7.97;5.22;;;0.40;99.90;;;;;;5054423;28;20204;-78
2021/03/06 01:28:21;;;;;;;5.80;4.82;;;0.40;99.90;;;;;;5052306;28;20208;-78
2021/03/06 01:30:47;;;;;;;7.60;4.75;;;0.30;99.90;;;;;;5050563;28;20267;-81
2021/03/06 01:33:14;;;;;;;8.00;5.70;;;0.50;99.90;;;;;;5042655;28;20254;-80
2021/03/06 01:35:42;;;;;;;5.53;4.93;;;-0.40;99.90;;;;;;5040602;28;20211;-80
2021/03/06 01:38:08;;;;;;;5.88;4.90;;;0.20;99.90;;;;;;5040050;28;20203;-80
2021/03/06 01:40:37;;;;;;;5.40;4.40;;;0.20;99.90;;;;;;5039519;28;20196;-80
2021/03/06 01:43:05;;;;;;;6.18;4.07;;;0.20;99.90;;;;;;5040203;28;20634;-80
2021/03/06 01:45:32;;;;;;;5.38;4.80;;;0.20;99.90;;;;;;5040256;28;20203;-80
2021/03/06 01:47:58;;;;;;;8.73;5.20;;;0.30;99.90;;;;;;5054821;28;20195;-80
2021/03/06 01:50:28;;;;;;;10.20;5.47;;;0.30;99.90;;;;;;5054828;28;20213;-81
2021/03/06 01:52:54;;;;;;;6.78;5.50;;;0.50;99.90;;;;;;5049261;28;20200;-80
2021/03/06 01:55:23;;;;;;;8.18;5.40;;;0.20;99.90;;;;;;5040140;28;20231;-80
2021/03/06 01:57:50;;;;;;;5.00;4.60;;;0.20;99.90;;;;;;5039600;28;20207;-80
2021/03/06 02:00:17;;;;;;;5.32;4.82;;;0.20;99.90;;;;;;5057154;28;20199;-79
2021/03/06 02:02:43;;;;;;;6.00;4.90;;;0.20;99.90;;;;;;5053054;28;20269;-80
2021/03/06 02:05:12;;;;;;;4.90;4.50;;;0.20;99.90;;;;;;5042266;28;20242;-80
2021/03/06 02:07:38;;;;;;;6.80;5.07;;;0.30;99.90;;;;;;5047897;28;20204;-79
2021/03/06 02:10:06;;;;;;;12.18;4.72;;;0.20;99.90;;;;;;5057608;28;20206;-78
2021/03/06 02:12:40;;;;;;;4.85;4.28;;;0.20;99.90;;;;;;5055878;28;20203;-79
2021/03/06 02:15:18;;;;;;;4.93;4.40;;;0.20;99.90;;;;;;5053896;28;20223;-79
2021/03/06 02:17:51;;;;;;;7.05;4.63;;;0.20;99.90;;;;;;5056003;28;20204;-79
2021/03/06 02:20:39;;;;;;;7.45;4.57;;;0.20;99.90;;;;;;5052811;28;20208;-79
2021/03/06 02:23:22;;;;;;;6.47;4.00;;;0.20;99.90;;;;;;5043348;28;20215;-79
2021/03/06 02:26:13;;;;;;;8.73;4.68;;;0.10;99.90;;;;;;5043756;28;20206;-79
2021/03/06 02:28:49;;;;;;;5.43;4.68;;;0.10;99.90;;;;;;5044677;28;20613;-79
2021/03/06 02:31:16;;;;;;;9.23;6.65;;;0.10;99.90;;;;;;5047766;28;20188;-78
2021/03/06 02:33:50;;;;;;;8.45;5.10;;;0.00;99.90;;;;;;5048219;28;20588;-80
2021/03/06 02:36:21;;;;;;;6.95;4.70;;;0.10;99.90;;;;;;5047845;28;20192;-79
2021/03/06 02:38:50;;;;;;;5.20;4.80;;;0.10;99.90;;;;;;5051770;28;20255;-79
2021/03/06 02:41:18;;;;;;;5.80;4.60;;;0.00;99.90;;;;;;5057125;28;20188;-79
2021/03/06 02:43:44;;;;;;;5.90;3.97;;;0.10;99.90;;;;;;5056996;28;20236;-78
2021/03/06 02:46:10;;;;;;;4.55;4.15;;;0.00;99.90;;;;;;5057385;28;20192;-79
2021/03/06 02:48:38;;;;;;;5.15;4.00;;;0.20;99.90;;;;;;5048838;28;20685;-80
2021/03/06 02:51:04;;;;;;;12.38;5.00;;;-0.10;99.90;;;;;;5038208;28;20200;-79
2021/03/06 02:53:30;;;;;;;5.75;4.63;;;-0.10;99.90;;;;;;5037986;28;20227;-79
2021/03/06 02:55:57;;;;;;;5.10;4.60;;;-0.10;99.90;;;;;;5049629;28;20207;-78
2021/03/06 02:58:33;;;;;;;8.35;5.00;;;-0.10;99.90;;;;;;5046177;28;20212;-79
2021/03/06 03:01:03;;;;;;;4.93;4.50;;;-0.10;99.90;;;;;;5039073;28;20188;-80
2021/03/06 03:03:49;;;;;;;7.13;4.50;;;-0.20;99.90;;;;;;5039585;28;20223;-79
2021/03/06 03:06:19;;;;;;;5.45;4.13;;;-0.20;99.90;;;;;;5042346;28;20234;-79
2021/03/06 03:08:57;;;;;;;4.90;4.50;;;-0.20;99.90;;;;;;5041261;28;20196;-79
2021/03/06 03:11:30;;;;;;;7.90;3.90;;;-0.20;99.90;;;;;;5042279;28;20198;-80
2021/03/06 03:13:59;;;;;;;5.18;4.50;;;-0.20;99.90;;;;;;5042551;28;20227;-80
2021/03/06 03:16:33;;;;;;;4.40;4.10;;;-0.20;99.90;;;;;;5044391;28;20262;-78
2021/03/06 03:19:07;;;;;;;8.27;4.80;;;-0.20;99.90;;;;;;5041689;28;20231;-79
2021/03/06 03:21:36;;;;;;;5.75;4.60;;;-0.20;99.90;;;;;;5041490;28;20199;-79
2021/03/06 03:24:07;;;;;;;5.47;4.40;;;-0.30;99.90;;;;;;5040321;28;20614;-79
2021/03/06 03:26:38;;;;;;;5.97;4.47;;;-0.20;99.90;;;;;;5041056;28;20188;-79
2021/03/06 03:29:06;;;;;;;7.10;4.22;;;-0.20;99.90;;;;;;5040946;28;20212;-79
2021/03/06 03:31:33;;;;;;;4.93;4.10;;;-0.20;99.90;;;;;;5053139;28;20215;-79
2021/03/06 03:34:00;;;;;;;8.18;4.10;;;-0.20;99.90;;;;;;5059965;28;20228;-79
2021/03/06 03:36:27;;;;;;;8.27;4.60;;;-0.10;99.90;;;;;;5060725;28;20207;-78
2021/03/06 03:38:54;;;;;;;4.72;3.67;;;-0.20;99.90;;;;;;5060844;28;20203;-78
2021/03/06 03:41:22;;;;;;;4.30;3.90;;;-0.30;99.90;;;;;;5060025;28;20200;-78
2021/03/06 03:43:48;;;;;;;4.15;3.75;;;-0.30;99.90;;;;;;5059607;28;20227;-79
2021/03/06 03:46:14;;;;;;;6.10;5.15;;;-0.30;99.90;;;;;;5054207;28;20226;-79
2021/03/06 03:48:44;;;;;;;8.35;5.38;;;-0.40;99.90;;;;;;5046360;28;20682;-79
2021/03/06 03:51:11;;;;;;;6.22;4.13;;;-0.40;99.90;;;;;;5045279;28;20214;-80
2021/03/06 03:53:38;;;;;;;7.13;4.07;;;-0.40;99.90;;;;;;5045646;28;20219;-80
2021/03/06 03:56:06;;;;;;;4.10;3.70;;;-0.30;99.90;;;;;;5047315;28;20207;-80
2021/03/06 03:58:33;;;;;;;6.70;4.57;;;-0.20;99.90;;;;;;5058051;28;20195;-80
2021/03/06 04:01:00;;;;;;;4.38;3.97;;;-0.20;99.90;;;;;;5054120;28;20219;-79
2021/03/06 04:06:08;;;;;;;8.52;4.78;;;-0.30;99.90;;;;;;5008691;28;20225;-85
2021/03/06 04:08:35;;;;;;;5.22;3.55;;;-0.40;99.90;;;;;;5014755;28;20205;-85
2021/03/06 04:11:02;;;;;;;8.35;4.20;;;-0.40;99.90;;;;;;5017524;28;20204;-85
2021/03/06 04:13:28;;;;;;;6.68;4.15;;;-0.40;99.90;;;;;;5018427;28;20196;-85
2021/03/06 04:15:54;;;;;;;5.90;4.13;;;-0.40;99.90;;;;;;4997608;28;20210;-85
2021/03/06 04:18:20;;;;;;;6.75;3.55;;;-0.30;99.90;;;;;;4996634;28;20201;-83
2021/03/06 04:20:46;;;;;;;7.38;4.10;;;-0.30;99.90;;;;;;5001612;28;20190;-83
2021/03/06 04:23:12;;;;;;;4.88;4.40;;;-0.30;99.90;;;;;;4998521;28;20233;-84
2021/03/06 04:25:39;;;;;;;8.15;3.85;;;-0.40;99.90;;;;;;4997141;28;20230;-85
2021/03/06 04:28:05;;;;;;;4.15;3.05;;;-0.40;99.90;;;;;;4992428;28;20213;-86
2021/03/06 04:30:31;;;;;;;5.03;3.78;;;-0.40;99.90;;;;;;4991950;28;20214;-84
2021/03/06 04:32:58;;;;;;;5.88;4.30;;;-0.40;99.90;;;;;;4989031;28;20217;-84
2021/03/06 04:35:24;;;;;;;5.22;3.80;;;-0.40;99.90;;;;;;4988465;28;20230;-85
2021/03/06 04:37:50;;;;;;;3.40;3.20;;;-0.40;99.90;;;;;;4989480;28;20205;-85
2021/03/06 04:40:17;;;;;;;13.40;3.60;;;-0.50;99.90;;;;;;4989302;28;20202;-85
2021/03/06 04:42:43;;;;;;;8.00;4.40;;;-0.40;99.90;;;;;;4989626;28;20205;-85
2021/03/06 04:45:10;;;;;;;3.88;3.50;;;-0.50;99.90;;;;;;4988235;28;20229;-84
2021/03/06 04:47:40;;;;;;;6.20;5.68;;;-0.50;99.90;;;;;;4986474;28;20205;-85
2021/03/06 04:50:08;;;;;;;8.23;3.75;;;-0.40;99.90;;;;;;4986280;28;20186;-83
2021/03/06 04:52:34;;;;;;;5.30;3.55;;;-0.40;99.90;;;;;;4985033;28;20201;-83
2021/03/06 04:55:00;;;;;;;4.40;4.05;;;-0.40;99.90;;;;;;4984900;28;20229;-85
2021/03/06 04:57:26;;;;;;;10.68;4.22;;;-0.40;99.90;;;;;;4985226;28;20201;-85
2021/03/06 04:59:53;;;;;;;3.60;2.92;;;-0.40;99.90;;;;;;4983506;28;20684;-85
2021/03/06 05:02:19;;;;;;;3.65;3.08;;;-0.30;99.90;;;;;;4984635;28;20205;-85
2021/03/06 05:04:45;;;;;;;7.45;3.75;;;-0.30;99.90;;;;;;4992643;28;20233;-86
2021/03/06 05:07:12;;;;;;;5.28;3.75;;;-0.30;99.90;;;;;;5003105;28;20208;-86
2021/03/06 05:09:38;;;;;;;6.45;3.10;;;-0.30;99.90;;;;;;5002062;28;20204;-85
2021/03/06 05:12:05;;;;;;;3.65;3.35;;;-0.40;99.90;;;;;;5001560;28;20201;-85
2021/03/06 05:14:31;;;;;;;4.45;3.40;;;-0.30;99.90;;;;;;5002136;28;20228;-84
2021/03/06 05:16:58;;;;;;;5.65;5.10;;;-0.40;99.90;;;;;;5004485;28;20201;-85
2021/03/06 05:19:24;;;;;;;8.73;3.60;;;-0.30;99.90;;;;;;5005200;28;20209;-85
2021/03/06 05:21:51;;;;;;;5.63;4.10;;;-0.40;99.90;;;;;;5004574;28;20583;-85
2021/03/06 05:24:17;;;;;;;12.63;3.85;;;-0.50;99.90;;;;;;5000964;28;20232;-84
2021/03/06 05:26:43;;;;;;;4.00;3.15;;;-0.50;99.90;;;;;;5000758;28;20232;-85
2021/03/06 05:29:09;;;;;;;3.50;3.20;;;-0.50;99.90;;;;;;5000606;28;20216;-86
2021/03/06 05:31:35;;;;;;;6.45;3.55;;;-0.50;99.90;;;;;;5000373;28;20201;-84
2021/03/06 05:34:03;;;;;;;4.32;3.30;;;-0.20;99.90;;;;;;5001836;28;20225;-84
2021/03/06 05:36:29;;;;;;;6.68;3.13;;;-0.40;99.90;;;;;;5008405;28;20720;-86
2021/03/06 05:38:56;;;;;;;4.95;4.32;;;-0.50;99.90;;;;;;5001882;28;20212;-85
2021/03/06 05:41:22;;;;;;;4.40;3.10;;;-0.40;99.90;;;;;;5001524;28;20668;-85
2021/03/06 05:43:49;;;;;;;11.88;4.28;;;-0.40;99.90;;;;;;5000851;28;20821;-85
2021/03/06 05:46:16;;;;;;;4.50;4.10;;;-0.50;99.90;;;;;;5002803;28;20679;-84
2021/03/06 05:48:42;;;;;;;5.03;3.75;;;-0.50;99.90;;;;;;5004069;28;20209;-85
2021/03/06 05:51:11;;;;;;;4.65;4.05;;;-0.50;99.90;;;;;;5004352;28;20262;-84
2021/03/06 05:53:40;;;;;;;4.85;4.00;;;-0.40;99.90;;;;;;5003705;28;20455;-85
2021/03/06 05:56:10;;;;;;;5.13;4.15;;;-0.50;99.90;;;;;;5006739;28;20452;-86
2021/03/06 05:58:38;;;;;;;7.05;4.70;;;-0.70;99.90;;;;;;5011211;28;20202;-85
2021/03/06 06:01:05;;;;;;;6.80;4.60;;;;;;;;;;5010384;28;20811;-86
2021/03/06 06:06:00;;;;;;;6.40;4.20;;;-0.60;99.90;;;;;;5091787;22;20247;-86
2021/03/06 06:08:34;;;;;;;4.50;3.78;;;-0.50;99.90;;;;;;5049813;28;20222;-86
2021/03/06 06:11:01;;;;;;;4.78;4.18;;;;;;;;;;5047083;28;20255;-85
2021/03/06 06:13:29;;;;;;;6.00;3.80;;;;;;;;;;5046112;28;20260;-85
2021/03/06 06:18:32;;;;;;;6.43;4.80;;;-0.40;99.90;;;;;;5018924;28;20227;-79
2021/03/06 06:20:58;;;;;;;4.30;3.90;;;-0.40;99.90;;;;;;5020405;28;20575;-80
2021/03/06 06:23:24;;;;;;;6.22;4.25;;;-0.50;99.90;;;;;;5021081;28;20274;-80
2021/03/06 06:25:51;;;;;;;6.80;4.47;;;-0.50;99.90;;;;;;5027964;28;20208;-79
2021/03/06 06:28:18;;;;;;;9.70;4.78;;;-0.50;99.90;;;;;;5036013;28;20224;-78
2021/03/06 06:31:10;;;;;;;9.07;5.30;;;-0.30;99.90;;;;;;5036450;28;20215;-78
2021/03/06 06:33:36;;;;;;;10.77;4.93;;;-0.30;99.90;;;;;;5032406;28;20205;-79
2021/03/06 06:36:03;;;;;;;10.90;4.57;;;-0.20;99.90;;;;;;5024333;28;20235;-79
2021/03/06 06:38:41;;;;;;;9.38;5.80;;;-0.30;99.90;;;;;;5025369;28;20204;-80
2021/03/06 06:41:07;;;;;;;5.03;4.07;;;-0.20;99.90;;;;;;5026265;28;20220;-80
2021/03/06 06:43:34;;;;;;;8.45;4.22;;;-0.20;99.90;;;;;;5019484;28;20479;-79
2021/03/06 06:46:00;;;;;;;5.13;3.88;;;-0.40;99.90;;;;;;5019499;28;20209;-79
2021/03/06 06:48:26;;;;;;;4.75;4.25;;;-0.10;99.90;;;;;;5017801;28;20622;-78
2021/03/06 06:51:06;;;;;;;5.18;3.97;;;0.10;99.90;;;;;;5016130;28;20438;-79
2021/03/06 06:53:32;;;;;;;6.45;4.45;;;0.00;99.90;;;;;;5026652;28;20185;-80
2021/03/06 06:55:58;;;;;;;8.70;5.00;;;0.00;99.90;;;;;;5028782;28;20208;-80
2021/03/06 06:58:33;;;;;;;5.25;4.00;;;0.40;99.90;;;;;;5034521;28;20218;-78
2021/03/06 07:00:59;;;;;;;3.88;3.47;;;0.10;99.90;;;;;;5033812;28;20220;-78
2021/03/06 07:03:25;;;;;;;6.03;3.95;;;0.20;99.90;;;;;;5033851;28;20228;-79
2021/03/06 07:05:52;;;;;;;7.72;3.97;;;0.20;99.90;;;;;;5034934;28;20204;-79
2021/03/06 07:08:22;;;;;;;6.78;4.43;;;0.30;99.90;;;;;;5031155;28;20224;-79
2021/03/06 07:10:48;;;;;;;5.45;3.92;;;0.30;99.90;;;;;;5030559;28;20211;-80
2021/03/06 07:13:15;;;;;;;9.50;5.75;;;0.40;99.90;;;;;;5035508;28;20211;-79
2021/03/06 07:15:43;;;;;;;5.20;4.45;;;0.50;99.90;;;;;;5035160;28;20211;-79
2021/03/06 07:18:17;;;;;;;5.80;4.72;;;0.50;99.90;;;;;;5035730;28;20233;-79
2021/03/06 07:20:44;;;;;;;7.90;4.20;;;0.60;99.90;;;;;;5035080;28;20184;-79
2021/03/06 07:23:16;;;;;;;5.93;3.33;;;0.70;99.90;;;;;;5034918;28;20212;-80
2021/03/06 07:25:43;;;;;;;4.65;3.88;;;0.70;99.90;;;;;;5036194;28;20235;-80
2021/03/06 07:28:09;;;;;;;4.00;3.60;;;0.80;99.90;;;;;;5031045;28;20282;-79
2021/03/06 07:30:36;;;;;;;6.65;3.85;;;0.60;99.90;;;;;;5030682;28;20209;-79
2021/03/06 07:33:05;;;;;;;5.72;4.05;;;0.70;99.90;;;;;;5030632;28;20208;-79
2021/03/06 07:35:35;;;;;;;9.10;4.15;;;0.70;99.90;;;;;;5029472;28;20196;-79
2021/03/06 07:38:03;;;;;;;3.47;3.17;;;0.80;99.90;;;;;;5026977;28;20264;-79
2021/03/06 07:40:30;;;;;;;5.30;3.97;;;0.90;99.90;;;;;;5021978;28;20219;-80
2021/03/06 07:42:59;;;;;;;4.82;3.38;;;1.00;99.90;;;;;;5018749;28;20209;-80
2021/03/06 07:45:27;;;;;;;8.98;3.65;;;1.00;99.90;;;;;;5019238;28;20238;-79
2021/03/06 07:47:58;;;;;;;3.58;3.25;;;1.00;99.90;;;;;;5019929;28;20311;-79
2021/03/06 07:50:27;;;;;;;3.90;3.25;;;1.00;99.90;;;;;;5022817;28;20238;-79
2021/03/06 07:52:54;;;;;;;5.43;3.47;;;1.10;99.90;;;;;;5027368;28;20204;-80
2021/03/06 07:55:22;;;;;;;3.30;3.00;;;1.20;99.90;;;;;;5025557;28;20254;-79
2021/03/06 07:58:06;;;;;;;9.15;3.08;;;1.30;99.90;;;;;;5025905;28;20220;-80
2021/03/06 08:00:43;;;;;;;5.40;3.08;;;1.50;99.90;;;;;;5020906;28;20200;-80
2021/03/06 08:03:37;;;;;;;3.17;2.90;;;1.50;99.90;;;;;;5021158;28;20275;-80
2021/03/06 08:06:17;;;;;;;6.38;3.30;;;1.50;99.90;;;;;;5021233;28;20250;-80
2021/03/06 08:09:05;;;;;;;7.05;3.30;;;1.60;99.90;;;;;;5025682;28;20208;-82
2021/03/06 08:11:43;;;;;;;6.18;3.42;;;1.60;99.90;;;;;;5025280;28;20193;-80
2021/03/06 08:14:40;;;;;;;2.90;2.70;;;1.80;99.90;;;;;;5022765;28;20188;-78
2021/03/06 08:17:37;;;;;;;5.53;3.40;;;1.70;99.90;;;;;;5022078;28;20243;-80
2021/03/06 08:20:06;;;;;;;5.85;3.20;;;1.90;99.90;;;;;;5022650;28;20193;-81
2021/03/06 08:22:33;;;;;;;4.93;3.03;;;2.00;99.90;;;;;;5021265;28;20215;-81
2021/03/06 08:25:17;;;;;;;3.45;2.58;;;2.00;99.90;;;;;;5020584;28;20216;-80
2021/03/06 08:27:43;;;;;;;5.90;3.30;;;2.00;99.90;;;;;;5019833;28;20224;-80
2021/03/06 08:30:26;;;;;;;4.97;3.10;;;2.20;99.90;;;;;;5020192;28;20255;-80
2021/03/06 08:33:14;;;;;;;4.43;3.13;;;2.20;99.90;;;;;;5019911;28;20193;-80
2021/03/06 08:35:40;;;;;;;4.22;3.55;;;2.30;99.90;;;;;;5019564;28;20197;-80
2021/03/06 08:38:29;;;;;;;3.67;3.00;;;2.30;99.90;;;;;;5021586;28;20307;-80
2021/03/06 08:40:56;;;;;;;4.72;3.35;;;2.30;99.90;;;;;;5020016;28;20188;-79
2021/03/06 08:43:22;;;;;;;8.27;3.45;;;2.30;99.90;;;;;;5019509;28;20204;-81
2021/03/06 08:45:48;;;;;;;7.20;3.08;;;2.40;99.90;;;;;;5025333;28;20200;-81
2021/03/06 08:48:15;;;;;;;5.70;2.90;;;2.60;99.90;;;;;;5034314;28;20251;-79
2021/03/06 08:50:43;;;;;;;5.43;3.50;;;2.70;99.90;;;;;;5033453;28;20207;-79
2021/03/06 08:53:13;;;;;;;3.58;2.97;;;2.70;99.90;;;;;;5034980;28;20205;-80
2021/03/06 08:55:42;;;;;;;5.03;3.20;;;2.30;99.90;;;;;;5032492;28;20216;-79
2021/03/06 08:58:09;;;;;;;5.03;3.38;;;2.80;99.90;;;;;;5032787;28;20725;-79
2021/03/06 09:00:37;;;;;;;4.72;2.83;;;2.70;99.90;;;;;;5031338;28;20215;-80
2021/03/06 09:03:13;;;;;;;12.38;3.78;;;2.70;99.90;;;;;;5030718;28;20204;-80
2021/03/06 09:05:41;;;;;;;7.32;3.83;;;2.80;99.90;;;;;;5034166;28;20203;-79
2021/03/06 09:08:07;;;;;;;7.03;3.95;;;2.70;99.90;;;;;;5034834;28;20224;-79
2021/03/06 09:10:40;;;;;;;10.02;2.38;;;2.90;99.90;;;;;;5032261;28;20251;-80
2021/03/06 09:13:11;;;;;;;3.30;2.55;;;2.80;99.90;;;;;;5031306;28;20239;-78
2021/03/06 09:15:46;;;;;;;3.60;3.30;;;2.90;99.90;;;;;;5034420;28;20193;-78
2021/03/06 09:18:16;;;;;;;6.10;2.85;;;3.00;99.90;;;;;;5032859;28;20231;-79
2021/03/06 09:20:47;;;;;;;3.50;2.25;;;3.00;99.90;;;;;;5036379;28;20193;-79
2021/03/06 09:23:23;;;;;;;5.75;1.90;;;3.10;99.90;;;;;;5035828;28;20219;-77
2021/03/06 09:25:50;;;;;;;11.05;3.30;;;3.10;99.90;;;;;;5032723;28;20192;-79
2021/03/06 09:28:23;;;;;;;3.45;3.15;;;3.20;99.90;;;;;;5032012;28;20231;-79
2021/03/06 09:30:50;;;;;;;2.67;2.47;;;3.30;99.90;;;;;;5029002;28;20193;-80
2021/03/06 09:33:24;;;;;;;3.80;2.60;;;3.50;99.90;;;;;;5031327;28;20221;-79
2021/03/06 09:36:03;;;;;;;3.03;2.83;;;3.70;99.90;;;;;;5029709;28;20209;-81
2021/03/06 09:38:29;;;;;;;3.05;2.78;;;3.90;99.90;;;;;;5032058;28;20211;-79
2021/03/06 09:40:57;;;;;;;9.40;2.55;;;4.00;99.90;;;;;;5031869;28;20215;-80
2021/03/06 09:43:28;;;;;;;4.07;2.95;;;4.00;99.90;;;;;;5028628;28;20204;-80
2021/03/06 09:45:56;;;;;;;3.30;3.10;;;4.10;99.90;;;;;;5028627;28;20193;-81
2021/03/06 09:48:22;;;;;;;5.07;2.67;;;4.40;99.90;;;;;;5031190;28;20200;-79
2021/03/06 09:50:48;;;;;;;4.25;2.97;;;4.30;99.90;;;;;;5026889;28;20307;-81
2021/03/06 09:53:17;;;;;;;3.85;3.17;;;4.40;99.90;;;;;;5027607;28;20523;-81
2021/03/06 09:55:43;;;;;;;7.65;3.35;;;4.20;99.90;;;;;;5022032;28;20204;-81
2021/03/06 09:58:18;;;;;;;5.13;3.15;;;4.20;99.90;;;;;;5021947;28;20251;-80
2021/03/06 10:00:45;;;;;;;4.65;2.50;;;4.20;99.90;;;;;;5024169;28;20208;-80
2021/03/06 10:03:11;;;;;;;6.85;3.85;;;4.30;99.90;;;;;;5023148;28;20208;-80
2021/03/06 10:05:38;;;;;;;4.72;2.20;;;4.40;99.90;;;;;;5025577;28;20224;-80
2021/03/06 10:08:04;;;;;;;6.22;2.95;;;4.40;99.90;;;;;;5023960;28;20228;-80
2021/03/06 10:10:31;;;;;;;3.67;2.40;;;4.60;99.90;;;;;;5030710;28;20216;-79
2021/03/06 10:12:57;;;;;;;5.45;3.08;;;4.70;99.90;;;;;;5032257;28;20208;-80
2021/03/06 10:15:26;;;;;;;3.03;2.40;;;4.50;99.90;;;;;;5028826;28;20227;-80
2021/03/06 10:17:52;;;;;;;4.25;3.30;;;4.40;99.90;;;;;;5028582;28;20228;-81
2021/03/06 10:20:28;;;;;;;4.55;3.67;;;4.60;99.90;;;;;;5029332;28;20212;-80
2021/03/06 10:22:54;;;;;;;6.80;3.33;;;4.40;99.90;;;;;;5029496;28;20212;-81
2021/03/06 10:25:24;;;;;;;4.85;3.15;;;4.10;99.90;;;;;;5028717;28;20224;-79
2021/03/06 10:27:51;;;;;;;6.13;3.00;;;4.00;99.90;;;;;;5029623;28;20228;-80
2021/03/06 10:30:19;;;;;;;7.05;2.50;;;4.30;99.90;;;;;;5029298;28;20207;-80
2021/03/06 10:32:48;;;;;;;5.80;2.45;;;4.40;99.90;;;;;;5028405;28;20204;-81
2021/03/06 10:35:37;;;;;;;9.73;2.75;;;4.40;99.90;;;;;;5031516;28;20227;-80
2021/03/06 10:38:05;;;;;;;7.50;3.05;;;4.60;99.90;;;;;;5030568;28;20235;-80
2021/03/06 10:40:52;;;;;;;11.00;3.95;;;4.80;99.90;;;;;;5031833;28;20209;-80
2021/03/06 10:43:29;;;;;;;10.45;3.47;;;4.40;99.90;;;;;;5032151;28;20193;-80
2021/03/06 10:46:07;;;;;;;3.50;2.83;;;4.50;99.90;;;;;;5033787;28;20194;-81
2021/03/06 10:48:38;;;;;;;5.55;3.10;;;4.70;99.90;;;;;;5034691;28;20189;-79
2021/03/06 10:51:05;;;;;;;4.32;3.30;;;4.90;99.90;;;;;;5030837;28;20212;-80
2021/03/06 10:53:31;;;;;;;9.73;3.15;;;5.00;99.90;;;;;;5028341;28;20269;-77
2021/03/06 10:55:58;;;;;;;6.15;3.03;;;4.70;99.90;;;;;;5034284;28;20215;-80
2021/03/06 10:58:46;;;;;;;5.50;2.95;;;4.90;99.90;;;;;;5034854;28;20270;-80
2021/03/06 11:01:15;;;;;;;7.30;2.88;;;4.70;99.90;;;;;;5035484;28;20314;-79
2021/03/06 11:03:44;;;;;;;3.85;3.55;;;4.70;99.90;;;;;;5034847;28;20229;-80
2021/03/06 11:06:11;;;;;;;3.00;2.70;;;4.30;99.90;;;;;;5035301;28;20216;-78
2021/03/06 11:08:37;;;;;;;8.73;3.22;;;4.80;99.90;;;;;;5033814;28;20233;-80
2021/03/06 11:11:04;;;;;;;6.05;3.88;;;4.80;99.90;;;;;;5033477;28;20334;-79
2021/03/06 11:13:39;;;;;;;4.63;4.22;;;4.90;99.90;;;;;;5033250;28;20235;-80
2021/03/06 11:16:06;;;;;;;6.78;3.05;;;5.10;99.90;;;;;;5032359;28;20499;-78
2021/03/06 11:18:32;;;;;;;4.10;3.70;;;4.80;99.90;;;;;;5034446;28;20204;-78
2021/03/06 11:20:59;;;;;;;4.82;3.40;;;4.50;99.90;;;;;;5034296;28;20204;-79
2021/03/06 11:23:25;;;;;;;5.00;3.90;;;4.50;99.90;;;;;;5033337;28;20208;-78
2021/03/06 11:25:51;;;;;;;3.55;3.08;;;4.70;99.90;;;;;;5038246;28;20204;-77
2021/03/06 11:28:17;;;;;;;7.80;4.53;;;4.70;99.90;;;;;;5037669;28;20591;-78
2021/03/06 11:30:46;;;;;;;3.97;3.60;;;4.80;99.90;;;;;;5037038;28;20215;-79
2021/03/06 11:33:14;;;;;;;7.95;4.05;;;4.70;99.90;;;;;;5033892;28;20259;-79
2021/03/06 11:35:41;;;;;;;6.30;4.10;;;4.50;99.90;;;;;;5033967;28;20235;-78
2021/03/06 11:38:09;;;;;;;6.15;4.18;;;4.40;99.90;;;;;;5033769;28;20234;-79
2021/03/06 11:40:37;;;;;;;4.85;4.13;;;4.20;99.90;;;;;;5032721;28;20207;-79
2021/03/06 11:43:04;;;;;;;5.82;4.40;;;4.00;99.90;;;;;;5035421;28;20200;-80
2021/03/06 11:45:30;;;;;;;7.35;4.70;;;4.00;99.90;;;;;;5035136;28;20279;-79
2021/03/06 11:47:56;;;;;;;4.32;3.97;;;4.20;99.90;;;;;;5038032;28;20229;-79
2021/03/06 11:50:25;;;;;;;7.88;5.70;;;4.30;99.90;;;;;;5037897;28;20200;-79
2021/03/06 11:52:51;;;;;;;7.47;4.90;;;4.30;99.90;;;;;;5037329;28;20427;-78
2021/03/06 11:55:18;;;;;;;7.97;4.50;;;4.10;99.90;;;;;;5038173;28;20454;-79
2021/03/06 11:57:48;;;;;;;11.65;6.40;;;4.20;99.90;;;;;;5039235;28;20227;-80
2021/03/06 12:00:16;;;;;;;7.32;4.95;;;4.20;99.90;;;;;;5038582;28;20204;-78
2021/03/06 12:02:42;;;;;;;9.70;5.75;;;4.30;99.90;;;;;;5038744;28;20205;-79
2021/03/06 12:05:12;;;;;;;10.52;5.75;;;4.20;99.90;;;;;;5034980;28;20236;-80
2021/03/06 12:07:38;;;;;;;11.23;5.88;;;4.10;99.90;;;;;;5023788;28;20240;-78
2021/03/06 12:10:06;;;;;;;6.50;5.40;;;3.90;99.90;;;;;;5020570;28;20201;-80
2021/03/06 12:12:33;;;;;;;5.38;4.47;;;4.00;99.90;;;;;;5020227;28;20199;-80
2021/03/06 12:15:00;;;;;;;5.38;4.55;;;4.10;99.90;;;;;;5022748;28;20203;-80
2021/03/06 12:17:26;;;;;;;5.15;4.70;;;4.20;99.90;;;;;;5052411;22;20232;-83
2021/03/06 12:19:52;;;;;;;7.60;4.95;;;4.30;99.90;;;;;;5041066;28;20215;-84
2021/03/06 12:22:18;;;;;;;6.55;5.03;;;4.20;99.90;;;;;;5040573;28;20212;-85
2021/03/06 12:24:46;;;;;;;9.00;4.45;;;4.10;99.90;;;;;;5042159;28;20318;-85
2021/03/06 12:27:12;;;;;;;9.63;5.18;;;4.20;99.90;;;;;;5044350;28;20230;-84
2021/03/06 12:29:39;;;;;;;8.80;5.75;;;4.20;99.90;;;;;;5042209;28;20207;-85
2021/03/06 12:32:06;;;;;;;7.25;4.22;;;4.20;99.90;;;;;;5043084;28;20204;-85
2021/03/06 12:34:32;;;;;;;5.03;4.53;;;4.10;99.90;;;;;;5040273;28;20200;-85
2021/03/06 12:36:58;;;;;;;4.40;3.80;;;4.20;99.90;;;;;;5039133;28;20255;-84
2021/03/06 12:39:25;;;;;;;5.32;4.40;;;4.10;99.90;;;;;;5038771;28;20214;-84
2021/03/06 12:41:52;;;;;;;5.65;5.10;;;4.00;99.90;;;;;;5039764;28;20208;-84
2021/03/06 12:44:19;;;;;;;5.00;4.45;;;4.00;99.90;;;;;;5039893;28;20582;-85
2021/03/06 12:46:47;;;;;;;20.00;5.65;;;4.10;99.90;;;;;;5039783;28;20217;-84
2021/03/06 12:49:13;;;;;;;6.90;4.97;;;4.00;99.90;;;;;;5039509;28;20227;-86
2021/03/06 12:51:39;;;;;;;8.63;5.15;;;4.00;99.90;;;;;;5039910;28;20580;-85
2021/03/06 12:54:06;;;;;;;5.63;4.93;;;4.00;99.90;;;;;;5039678;28;20196;-85
2021/03/06 12:56:33;;;;;;;6.45;4.07;;;4.80;99.90;;;;;;5039183;28;20253;-84
2021/03/06 12:58:59;;;;;;;4.70;4.25;;;4.10;99.90;;;;;;5052572;28;20200;-84
2021/03/06 13:01:25;;;;;;;8.07;4.82;;;4.00;99.90;;;;;;5051205;28;20211;-84
2021/03/06 13:03:53;;;;;;;6.90;4.85;;;4.00;99.90;;;;;;5041201;28;20226;-85
2021/03/06 13:06:19;;;;;;;8.60;4.22;;;3.90;99.90;;;;;;5041706;28;20226;-85
2021/03/06 13:08:45;;;;;;;8.38;5.70;;;4.00;99.90;;;;;;5044060;28;20223;-85
2021/03/06 13:11:11;;;;;;;7.13;5.15;;;4.00;99.90;;;;;;5052306;28;20208;-84